Cogswell, North Dakota
Current Conditions -  °F | °C
As of 9:35 PM on Friday 28 Nov 2014 (Local Time) from KGWR Reporting Station
Overcast Overcast  
Wind Chill:   Ceiling: 11000
Heat Index: 19°   Visibility: 10mi
Dew Point: 18°   Wind: 14mph
Humidity: 93%   Direction: 140°SE
Pressure: 29.58"   Gusts: NA
Location:  46.11°N, 97.78°W
Report Text: KGWR 290335Z AUTO 14012KT 10SM FEW002 OVC110 M07/M08 A2958 RMK A01 P000
Loading
Personal Weather Stations






























Interactive Weather Map New forecast layout! Learn more

10-Day Weather Forecast

Advertisements
Track Severe Weather on mobile